createdAt,value
2023-04-13T00:00:50.623Z,4.43
2023-04-13T00:05:54.857Z,3.90
2023-04-13T00:10:59.905Z,3.80
2023-04-13T00:16:02.829Z,4.67
2023-04-13T00:21:06.195Z,3.90
2023-04-13T00:26:10.426Z,5.03
2023-04-13T00:31:13.340Z,2.97
2023-04-13T00:36:16.729Z,3.07
2023-04-13T00:41:21.097Z,3.10
2023-04-13T00:46:24.315Z,2.40
2023-04-13T00:51:27.580Z,3.20
2023-04-13T00:56:33.761Z,3.17
2023-04-13T01:01:46.847Z,2.90
2023-04-13T01:06:57.394Z,2.77
2023-04-13T01:12:11.519Z,2.93
2023-04-13T01:17:21.707Z,2.13
2023-04-13T01:22:29.571Z,3.50
2023-04-13T01:27:44.129Z,2.87
2023-04-13T01:32:47.385Z,2.73
2023-04-13T01:37:51.684Z,2.30
2023-04-13T01:42:58.529Z,2.30
2023-04-13T01:48:13.138Z,3.20
2023-04-13T01:53:36.820Z,3.03
2023-04-13T01:58:42.690Z,1.83
2023-04-13T02:03:50.565Z,1.93
2023-04-13T02:08:53.574Z,1.67
2023-04-13T02:13:58.934Z,1.97
2023-04-13T02:19:02.118Z,1.83
2023-04-13T02:24:05.917Z,2.07
2023-04-13T02:29:10.242Z,4.93
2023-04-13T02:34:13.316Z,1.57
2023-04-13T02:39:18.273Z,2.97
2023-04-13T02:44:22.996Z,2.90
2023-04-13T02:49:32.943Z,1.60
2023-04-13T02:54:54.613Z,1.70
2023-04-13T03:00:07.625Z,1.23
2023-04-13T03:05:19.819Z,1.80
2023-04-13T03:10:24.094Z,1.30
2023-04-13T03:15:29.253Z,2.57
2023-04-13T03:20:32.428Z,2.90
2023-04-13T03:25:37.749Z,1.70
2023-04-13T03:30:42.137Z,2.07
2023-04-13T03:35:45.514Z,1.23
2023-04-13T03:40:57.656Z,1.80
2023-04-13T03:46:04.726Z,1.70
2023-04-13T03:51:08.921Z,2.07
2023-04-13T03:56:23.421Z,2.73
2023-04-13T04:01:28.362Z,1.87
2023-04-13T04:06:32.218Z,4.47
2023-04-13T04:12:01.526Z,3.47
2023-04-13T04:17:16.564Z,2.27
2023-04-13T04:22:19.987Z,3.07
2023-04-13T04:27:25.731Z,2.77
2023-04-13T04:32:33.868Z,3.43
2023-04-13T04:37:41.672Z,2.60
2023-04-13T04:42:49.364Z,3.23
2023-04-13T04:48:09.474Z,2.00
2023-04-13T04:53:12.656Z,2.67
2023-04-13T04:58:16.756Z,1.53
2023-04-13T05:03:24.910Z,1.30
2023-04-13T05:08:38.816Z,2.83
2023-04-13T05:13:43.168Z,2.77
2023-04-13T05:19:01.221Z,1.27
2023-04-13T05:24:40.317Z,5.00
2023-04-13T05:29:47.956Z,2.23
2023-04-13T05:34:56.668Z,1.43
2023-04-13T05:40:02.557Z,1.80
2023-04-13T05:45:10.598Z,3.10
2023-04-13T05:50:25.768Z,1.37
2023-04-13T05:55:29.887Z,2.03
2023-04-13T06:00:39.986Z,1.53
2023-04-13T06:05:49.570Z,6.00
2023-04-13T06:10:52.535Z,1.87
2023-04-13T06:15:55.498Z,2.43
2023-04-13T06:21:00.009Z,3.63
2023-04-13T06:26:05.089Z,3.10
2023-04-13T06:31:23.415Z,1.30
2023-04-13T06:36:29.478Z,1.70
2023-04-13T06:41:34.306Z,1.90
2023-04-13T06:46:56.590Z,2.93
2023-04-13T06:52:02.660Z,2.37
2023-04-13T06:57:05.841Z,3.40
2023-04-13T07:02:09.753Z,4.77
2023-04-13T07:07:14.592Z,2.67
2023-04-13T07:12:17.768Z,1.10
2023-04-13T07:17:20.816Z,6.17
2023-04-13T07:22:25.217Z,5.03
2023-04-13T07:27:29.910Z,4.00
2023-04-13T07:32:33.193Z,3.87
2023-04-13T07:37:37.899Z,5.77
2023-04-13T07:42:42.111Z,2.10
2023-04-13T07:47:46.484Z,1.67
2023-04-13T07:52:50.838Z,2.50
2023-04-13T07:57:59.806Z,1.93
2023-04-13T08:03:03.144Z,2.73
2023-04-13T08:08:10.655Z,4.07
2023-04-13T08:13:13.778Z,2.10
2023-04-13T08:18:19.453Z,2.63
2023-04-13T08:23:24.110Z,2.20
2023-04-13T08:28:27.212Z,2.30
2023-04-13T08:33:30.229Z,4.60
2023-04-13T08:38:36.735Z,4.23
2023-04-13T08:43:41.714Z,3.63
2023-04-13T08:48:54.011Z,1.60
2023-04-13T08:54:03.048Z,4.30
2023-04-13T08:59:15.292Z,2.60
2023-04-13T09:04:22.929Z,3.00
2023-04-13T09:09:34.757Z,2.50
2023-04-13T09:14:38.666Z,1.57
2023-04-13T09:19:41.969Z,3.63
2023-04-13T09:24:46.302Z,4.30
2023-04-13T09:29:53.513Z,2.83
2023-04-13T09:35:04.848Z,2.00
2023-04-13T09:40:13.756Z,2.30
2023-04-13T09:45:16.650Z,2.70
2023-04-13T09:50:22.704Z,2.70
2023-04-13T09:55:27.898Z,1.43
2023-04-13T10:00:31.870Z,4.17
2023-04-13T10:05:47.348Z,1.97
2023-04-13T10:11:02.487Z,1.80
2023-04-13T10:16:19.695Z,3.83
2023-04-13T10:21:23.027Z,4.43
2023-04-13T10:26:32.900Z,2.50
2023-04-13T10:31:38.004Z,3.00
2023-04-13T10:36:43.035Z,2.20
2023-04-13T10:41:47.449Z,1.37
2023-04-13T10:46:52.020Z,2.83
2023-04-13T10:51:55.024Z,3.53
2023-04-13T10:57:00.649Z,2.23
2023-04-13T11:02:07.909Z,2.80
2023-04-13T11:07:17.096Z,2.67
2023-04-13T11:12:21.487Z,1.40
2023-04-13T11:17:24.684Z,2.67
2023-04-13T11:22:28.729Z,3.00
2023-04-13T11:27:33.083Z,2.67
2023-04-13T11:32:37.932Z,4.17
2023-04-13T11:37:42.955Z,3.43
2023-04-13T11:42:48.735Z,1.40
2023-04-13T11:47:52.608Z,2.53
2023-04-13T11:52:57.379Z,3.83
2023-04-13T11:58:08.964Z,1.60
2023-04-13T12:08:26.426Z,2.20
2023-04-13T12:13:46.836Z,2.30
2023-04-13T12:18:54.137Z,7.90
2023-04-13T12:23:59.774Z,2.93
2023-04-13T12:29:06.281Z,4.40
2023-04-13T12:34:09.537Z,2.20
2023-04-13T12:39:12.444Z,2.20
2023-04-13T12:44:17.149Z,1.33
2023-04-13T12:49:20.186Z,2.07
2023-04-13T12:54:23.267Z,1.90
2023-04-13T12:59:27.608Z,1.73
2023-04-13T13:04:30.825Z,2.23
2023-04-13T13:09:34.111Z,1.53
2023-04-13T13:14:38.346Z,3.30
2023-04-13T13:19:41.309Z,2.33
2023-04-13T13:24:44.209Z,1.83
2023-04-13T13:29:48.442Z,3.90
2023-04-13T13:34:51.562Z,2.23
2023-04-13T13:39:54.828Z,5.00
2023-04-13T13:44:59.176Z,1.90
2023-04-13T13:50:02.235Z,3.53
2023-04-13T13:55:11.479Z,2.50
2023-04-13T14:00:17.822Z,3.20
2023-04-13T14:05:21.966Z,2.00
2023-04-13T14:10:24.950Z,5.87
2023-04-13T14:15:29.345Z,1.20
2023-04-13T14:20:33.172Z,2.20
2023-04-13T14:25:36.676Z,3.37
2023-04-13T14:30:41.742Z,12.13
2023-04-13T14:35:44.633Z,4.03
2023-04-13T14:40:48.060Z,3.90
2023-04-13T14:45:55.026Z,4.70
2023-04-13T14:50:57.972Z,6.47
2023-04-13T14:56:00.920Z,6.57
2023-04-13T15:01:05.597Z,2.40
2023-04-13T15:06:10.075Z,3.17
2023-04-13T15:11:13.148Z,3.53
2023-04-13T15:16:17.507Z,5.67
2023-04-13T15:21:20.447Z,4.40
2023-04-13T15:26:24.299Z,3.73
2023-04-13T15:31:28.606Z,4.47
2023-04-13T15:36:31.490Z,2.33
2023-04-13T15:41:34.488Z,2.60
2023-04-13T15:46:40.128Z,1.70
2023-04-13T15:51:43.040Z,2.20
2023-04-13T15:56:45.989Z,3.87
2023-04-13T16:01:51.410Z,3.10
2023-04-13T16:07:09.385Z,2.70
2023-04-13T16:12:15.518Z,3.50
2023-04-13T16:17:30.916Z,2.80
2023-04-13T16:22:35.614Z,2.43
2023-04-13T16:27:40.056Z,4.63
2023-04-13T16:32:45.524Z,2.60
2023-04-13T16:37:48.468Z,1.73
2023-04-13T16:42:51.859Z,6.23
2023-04-13T16:47:56.606Z,3.50
2023-04-13T16:53:01.086Z,2.33
2023-04-13T16:58:04.011Z,4.30
2023-04-13T17:03:08.404Z,4.07
2023-04-13T17:08:11.414Z,4.83
2023-04-13T17:13:14.337Z,1.50
2023-04-13T17:18:18.622Z,3.40
2023-04-13T17:23:22.631Z,3.40
2023-04-13T17:28:26.320Z,6.60
2023-04-13T17:33:30.603Z,7.43
2023-04-13T17:38:33.520Z,4.77
2023-04-13T17:43:36.480Z,3.87
2023-04-13T17:48:41.111Z,4.00
2023-04-13T17:53:44.045Z,6.10
2023-04-13T17:58:46.929Z,8.97
2023-04-13T18:03:51.392Z,5.03
2023-04-13T18:08:54.577Z,3.00
2023-04-13T18:13:57.893Z,5.13
2023-04-13T18:19:02.328Z,3.40
2023-04-13T18:24:05.944Z,2.87
2023-04-13T18:29:09.605Z,2.20
2023-04-13T18:34:14.864Z,4.13
2023-04-13T18:39:19.228Z,18.50
2023-04-13T18:44:22.168Z,13.10
2023-04-13T18:49:27.104Z,14.90
2023-04-13T18:54:32.225Z,10.60
2023-04-13T18:59:35.249Z,7.80
2023-04-13T19:04:40.190Z,8.47
2023-04-13T19:09:43.183Z,10.97
2023-04-13T19:14:46.998Z,8.03
2023-04-13T19:19:51.421Z,9.17
2023-04-13T19:24:54.353Z,8.60
2023-04-13T19:29:57.395Z,7.07
2023-04-13T19:35:01.747Z,12.40
2023-04-13T19:40:09.516Z,6.63
2023-04-13T19:45:14.348Z,7.57
2023-04-13T19:50:18.942Z,7.77
2023-04-13T19:55:21.870Z,8.00
2023-04-13T20:00:28.028Z,5.50
2023-04-13T20:05:32.785Z,11.17
2023-04-13T20:10:35.854Z,4.67
2023-04-13T20:15:39.472Z,4.53
2023-04-13T20:20:44.320Z,5.13
2023-04-13T20:25:47.199Z,4.30
2023-04-13T20:30:50.126Z,6.20
2023-04-13T20:35:55.132Z,4.10
2023-04-13T20:40:59.237Z,7.50
2023-04-13T20:46:02.201Z,6.30
2023-04-13T20:51:08.026Z,5.23
2023-04-13T20:56:11.137Z,4.87
2023-04-13T21:01:14.120Z,5.43
2023-04-13T21:06:18.433Z,5.60
2023-04-13T21:11:21.428Z,5.67
2023-04-13T21:16:26.446Z,7.90
2023-04-13T21:21:32.786Z,6.73
2023-04-13T21:26:35.686Z,5.37
2023-04-13T21:31:38.580Z,9.17
2023-04-13T21:41:50.021Z,5.40
2023-04-13T21:46:52.914Z,7.60
2023-04-13T21:51:57.172Z,7.00
2023-04-13T21:57:00.220Z,7.10
2023-04-13T22:02:03.159Z,8.67
2023-04-13T22:07:07.490Z,8.83
2023-04-13T22:12:11.298Z,4.40
2023-04-13T22:17:14.625Z,6.57
2023-04-13T22:22:18.902Z,7.40
2023-04-13T22:27:21.855Z,6.47
2023-04-13T22:32:24.887Z,9.20
2023-04-13T22:37:32.918Z,6.50
2023-04-13T22:42:35.946Z,6.77
2023-04-13T22:47:38.842Z,6.80
2023-04-13T22:52:43.046Z,5.70
2023-04-13T22:57:45.961Z,5.33
2023-04-13T23:02:50.520Z,4.93
2023-04-13T23:07:55.392Z,7.27
2023-04-13T23:12:58.519Z,7.03
2023-04-13T23:18:02.712Z,9.90
2023-04-13T23:23:07.174Z,7.87
2023-04-13T23:28:10.137Z,6.60
2023-04-13T23:33:13.066Z,7.57
2023-04-13T23:38:17.352Z,12.13
2023-04-13T23:43:20.252Z,8.60
2023-04-13T23:48:25.402Z,8.43
2023-04-13T23:53:29.755Z,7.20
2023-04-13T23:58:32.690Z,7.30
